Time;durP1;ratioP1;P1;durP2;ratioP2;P2;SDS_P1;SDS_P2;PMS_P1;PMS_P2;Temp;Humidity;BMP_temperature;BMP_pressure;BME280_temperature;BME280_humidity;BME280_pressure;Samples;Min_cycle;Max_cycle;Signal;HPM_P1;HPM_P2
2023/09/27 00:00:15;;;;;;;3.23;2.93;;;22.10;64.40;22.90;101186.00;;;;5011029;28;20261;-55
2023/09/27 00:02:42;;;;;;;3.73;3.00;;;22.10;64.40;22.90;101185.00;;;;5009290;28;20204;-57
2023/09/27 00:05:10;;;;;;;3.10;2.90;;;22.10;64.30;22.90;101176.00;;;;5009421;28;20187;-55
2023/09/27 00:07:39;;;;;;;3.20;2.90;;;22.00;64.30;22.90;101172.00;;;;5007757;28;20182;-55
2023/09/27 00:10:08;;;;;;;3.03;2.83;;;22.00;64.30;22.80;101170.00;;;;5007996;28;20183;-55
2023/09/27 00:12:34;;;;;;;2.93;2.73;;;22.00;64.30;22.80;101172.00;;;;5006454;28;20199;-57
2023/09/27 00:15:01;;;;;;;3.20;2.93;;;22.10;64.30;22.80;101186.00;;;;5007872;28;20275;-55
2023/09/27 00:17:28;;;;;;;3.27;2.87;;;22.00;64.20;22.80;101186.00;;;;5008154;28;20187;-55
2023/09/27 00:19:54;;;;;;;3.40;3.10;;;22.00;64.20;22.80;101192.00;;;;5006798;28;20207;-55
2023/09/27 00:22:20;;;;;;;3.00;2.80;;;22.00;64.30;22.80;101193.00;;;;5008147;28;20203;-55
2023/09/27 00:24:46;;;;;;;3.23;3.00;;;22.00;64.30;22.80;101197.00;;;;5008008;28;20257;-55
2023/09/27 00:27:11;;;;;;;3.20;3.00;;;22.00;64.20;22.80;101188.00;;;;5008098;28;20263;-55
2023/09/27 00:29:38;;;;;;;3.40;3.10;;;21.90;64.10;22.70;101193.00;;;;5007883;28;20205;-55
2023/09/27 00:32:05;;;;;;;3.23;2.93;;;21.90;64.10;22.80;101182.00;;;;5008090;28;20282;-55
2023/09/27 00:34:31;;;;;;;3.40;3.10;;;21.90;64.10;22.70;101187.00;;;;5007742;28;20275;-55
2023/09/27 00:36:57;;;;;;;3.10;2.80;;;21.90;64.00;22.70;101187.00;;;;5007974;28;20212;-55
2023/09/27 00:39:24;;;;;;;3.10;2.90;;;21.90;64.00;22.70;101197.00;;;;5007755;28;20214;-55
2023/09/27 00:41:49;;;;;;;2.97;2.77;;;21.90;64.10;22.70;101181.00;;;;5008006;28;20202;-55
2023/09/27 00:44:15;;;;;;;3.20;3.00;;;21.90;64.00;22.70;101183.00;;;;5008117;28;20654;-56
2023/09/27 00:46:41;;;;;;;4.60;2.80;;;21.90;64.10;22.70;101191.00;;;;5011117;28;20179;-56
2023/09/27 00:49:08;;;;;;;3.10;2.90;;;21.90;64.20;22.70;101194.00;;;;5010235;28;20187;-56
2023/09/27 00:51:34;;;;;;;3.17;2.87;;;21.80;64.00;22.60;101199.00;;;;5011061;28;20203;-55
2023/09/27 00:54:00;;;;;;;3.20;2.87;;;21.80;64.00;22.60;101200.00;;;;5011197;28;20279;-55
2023/09/27 00:56:26;;;;;;;3.47;2.90;;;21.80;64.00;22.60;101208.00;;;;5011978;28;20520;-55
2023/09/27 00:58:52;;;;;;;3.20;3.00;;;21.80;63.90;22.60;101210.00;;;;5010282;28;20208;-55
2023/09/27 01:01:18;;;;;;;3.20;3.00;;;21.80;63.70;22.60;101219.00;;;;5010046;28;20207;-55
2023/09/27 01:03:44;;;;;;;3.17;2.87;;;21.80;63.70;22.60;101229.00;;;;5010098;28;20308;-54
2023/09/27 01:06:11;;;;;;;3.10;2.90;;;21.80;63.80;22.60;101228.00;;;;5010067;28;20619;-55
2023/09/27 01:08:37;;;;;;;3.00;2.80;;;21.80;63.90;22.60;101225.00;;;;5009804;28;20531;-55
2023/09/27 01:11:02;;;;;;;2.70;2.50;;;21.80;63.70;22.60;101222.00;;;;5005133;28;20211;-55
2023/09/27 01:13:28;;;;;;;3.10;2.80;;;21.80;63.90;22.50;101219.00;;;;4993177;28;20187;-54
2023/09/27 01:15:54;;;;;;;3.00;2.80;;;21.80;63.70;22.50;101216.00;;;;5009815;28;20263;-55
2023/09/27 01:18:20;;;;;;;3.53;2.93;;;21.80;63.70;22.40;101214.00;;;;5010548;28;20234;-55
2023/09/27 01:20:45;;;;;;;3.00;2.63;;;21.70;63.50;22.50;101211.00;;;;5010878;28;20581;-55
2023/09/27 01:23:11;;;;;;;2.90;2.70;;;21.70;63.80;22.50;101229.00;;;;5010955;28;20187;-55
2023/09/27 01:25:38;;;;;;;3.10;2.70;;;21.70;63.80;22.40;101221.00;;;;5010844;28;20283;-55
2023/09/27 01:28:10;;;;;;;3.17;2.87;;;21.70;64.00;22.40;101231.00;;;;5012653;28;20186;-55
2023/09/27 01:30:37;;;;;;;3.00;2.70;;;21.70;63.80;22.40;101236.00;;;;5027315;28;20565;-55
2023/09/27 01:33:06;;;;;;;3.20;2.73;;;21.60;63.70;22.40;101234.00;;;;5010328;28;20242;-58
2023/09/27 01:35:39;;;;;;;3.10;2.90;;;21.60;63.50;22.40;101246.00;;;;5011094;28;20266;-55
2023/09/27 01:38:05;;;;;;;2.90;2.70;;;21.60;63.50;22.40;101240.00;;;;5011624;28;20184;-56
2023/09/27 01:40:32;;;;;;;3.17;2.97;;;21.60;63.60;22.40;101237.00;;;;5011450;28;20203;-55
2023/09/27 01:43:02;;;;;;;3.13;2.93;;;21.60;63.60;22.40;101214.00;;;;5018082;28;20192;-56
2023/09/27 01:45:31;;;;;;;3.10;2.80;;;21.60;63.50;22.30;101215.00;;;;5027548;28;20271;-55
2023/09/27 01:47:58;;;;;;;2.93;2.73;;;21.60;63.50;22.30;101214.00;;;;5010866;28;20191;-55
2023/09/27 01:50:24;;;;;;;3.10;2.90;;;21.50;63.40;22.30;101240.00;;;;5009432;28;20182;-55
2023/09/27 01:52:54;;;;;;;3.90;3.30;;;21.50;63.60;22.30;101226.00;;;;5008988;28;20199;-60
2023/09/27 01:55:20;;;;;;;3.20;2.87;;;21.40;63.70;22.20;101254.00;;;;5010242;28;20179;-56
2023/09/27 01:57:46;;;;;;;3.27;3.07;;;21.40;63.70;22.20;101243.00;;;;5009134;28;20234;-55
2023/09/27 02:00:14;;;;;;;3.20;3.00;;;21.40;63.70;22.20;101249.00;;;;5010122;28;20203;-55
2023/09/27 02:02:55;;;;;;;3.00;2.80;;;21.50;63.70;22.20;101253.00;;;;5010092;28;20191;-56
2023/09/27 02:05:21;;;;;;;3.23;3.00;;;21.50;63.70;22.20;101239.00;;;;5009297;28;20195;-55
2023/09/27 02:07:47;;;;;;;3.10;2.80;;;21.40;63.50;22.20;101240.00;;;;5009190;28;20546;-55
2023/09/27 02:10:12;;;;;;;3.10;2.90;;;21.40;63.50;22.20;101227.00;;;;5009874;28;20179;-55
2023/09/27 02:12:38;;;;;;;3.00;2.70;;;21.40;63.40;22.20;101233.00;;;;5008346;28;20200;-49
2023/09/27 02:15:14;;;;;;;3.00;2.80;;;21.40;63.50;22.20;101228.00;;;;5009463;28;20259;-47
2023/09/27 02:17:40;;;;;;;3.53;2.83;;;21.40;63.50;22.10;101231.00;;;;5008092;28;20206;-49
2023/09/27 02:20:14;;;;;;;3.07;2.87;;;21.40;63.60;22.10;101229.00;;;;5009829;28;20209;-48
2023/09/27 02:22:40;;;;;;;5.87;3.20;;;21.40;63.50;22.10;101236.00;;;;5009458;28;20199;-49
2023/09/27 02:25:14;;;;;;;3.03;2.77;;;21.40;63.70;22.10;101229.00;;;;5008576;28;20183;-49
2023/09/27 02:27:40;;;;;;;3.30;3.00;;;21.40;63.70;22.10;101239.00;;;;5009584;28;20199;-49
2023/09/27 02:30:10;;;;;;;4.73;2.87;;;21.30;63.60;22.10;101243.00;;;;5009763;28;20180;-49
2023/09/27 02:32:37;;;;;;;3.37;2.73;;;21.40;63.70;22.10;101244.00;;;;5009924;28;20318;-49
2023/09/27 02:35:04;;;;;;;3.10;2.90;;;21.30;63.60;22.10;101244.00;;;;5009853;28;20179;-55
2023/09/27 02:37:31;;;;;;;2.80;2.60;;;21.40;63.70;22.10;101246.00;;;;5009379;28;20647;-55
2023/09/27 02:39:58;;;;;;;3.00;2.70;;;21.30;63.50;22.00;101253.00;;;;5009382;28;20277;-56
2023/09/27 02:42:24;;;;;;;3.30;3.00;;;21.30;63.60;22.00;101249.00;;;;5009307;28;20250;-55
2023/09/27 02:44:50;;;;;;;3.30;2.67;;;21.30;63.60;22.00;101245.00;;;;5009183;28;20170;-55
2023/09/27 02:47:16;;;;;;;3.10;2.90;;;21.30;63.50;22.00;101232.00;;;;5009253;28;20176;-56
2023/09/27 02:49:42;;;;;;;3.07;2.80;;;21.30;63.50;22.00;101235.00;;;;5009416;28;21783;-56
2023/09/27 02:52:07;;;;;;;3.17;2.97;;;21.30;63.50;22.00;101219.00;;;;5008210;28;20227;-55
2023/09/27 02:54:33;;;;;;;2.80;2.60;;;21.30;63.50;22.00;101214.00;;;;5009721;28;20716;-55
2023/09/27 02:56:59;;;;;;;2.90;2.70;;;21.20;63.40;22.00;101202.00;;;;5009299;28;20191;-55
2023/09/27 02:59:25;;;;;;;3.20;2.90;;;21.30;63.30;21.90;101198.00;;;;5008976;28;20202;-55
2023/09/27 03:01:51;;;;;;;2.90;2.70;;;21.20;63.20;21.90;101199.00;;;;5009820;28;20196;-56
2023/09/27 03:04:16;;;;;;;5.70;3.13;;;21.20;63.50;21.90;101198.00;;;;5010400;28;20172;-55
2023/09/27 03:06:42;;;;;;;6.50;2.93;;;21.20;63.60;21.90;101191.00;;;;5009931;28;20235;-56
2023/09/27 03:09:14;;;;;;;4.07;3.20;;;21.10;63.60;21.90;101198.00;;;;5009831;28;20180;-56
2023/09/27 03:11:42;;;;;;;4.23;2.87;;;21.10;63.50;21.80;101198.00;;;;5009790;28;20698;-55
2023/09/27 03:14:08;;;;;;;3.30;3.00;;;21.20;63.50;21.80;101194.00;;;;5009879;28;20180;-56
2023/09/27 03:16:34;;;;;;;3.30;3.00;;;21.10;63.30;21.80;101187.00;;;;5011085;28;20180;-55
2023/09/27 03:19:00;;;;;;;3.13;2.83;;;21.10;63.30;21.80;101198.00;;;;5009361;28;20207;-55
2023/09/27 03:21:29;;;;;;;3.03;2.80;;;21.10;63.30;21.80;101192.00;;;;5010097;28;20211;-55
2023/09/27 03:23:55;;;;;;;4.33;3.00;;;21.10;63.30;21.80;101198.00;;;;5010332;28;20179;-56
2023/09/27 03:26:22;;;;;;;4.63;2.70;;;21.10;63.30;21.80;101189.00;;;;5009610;28;20250;-56
2023/09/27 03:28:51;;;;;;;4.07;2.77;;;21.10;63.30;21.80;101193.00;;;;5022831;28;20179;-55
2023/09/27 03:31:17;;;;;;;3.47;3.03;;;21.10;63.20;21.80;101197.00;;;;5021092;28;20206;-55
2023/09/27 03:33:43;;;;;;;2.97;2.77;;;21.10;63.10;21.80;101206.00;;;;5011615;28;20572;-55
2023/09/27 03:36:09;;;;;;;4.17;2.83;;;21.00;63.00;21.80;101203.00;;;;5010364;28;20262;-55
2023/09/27 03:38:36;;;;;;;3.17;2.87;;;21.10;63.20;21.70;101194.00;;;;5010452;28;20298;-55
2023/09/27 03:41:02;;;;;;;2.80;2.60;;;21.10;63.10;21.70;101198.00;;;;5010796;28;20179;-55
2023/09/27 03:43:28;;;;;;;4.80;3.00;;;21.00;63.00;21.70;101192.00;;;;5020266;28;20245;-58
2023/09/27 03:45:53;;;;;;;3.30;3.00;;;21.00;62.90;21.70;101194.00;;;;5014800;28;20680;-55
2023/09/27 03:48:19;;;;;;;3.00;2.80;;;21.00;63.00;21.70;101188.00;;;;5010782;28;20270;-55
2023/09/27 03:50:45;;;;;;;3.10;2.90;;;21.00;63.00;21.60;101192.00;;;;5009564;28;20274;-56
2023/09/27 03:53:11;;;;;;;3.33;3.00;;;20.90;62.90;21.60;101194.00;;;;5010648;28;20205;-56
2023/09/27 03:55:36;;;;;;;2.83;2.50;;;20.90;62.90;21.60;101191.00;;;;5009389;28;20184;-55
2023/09/27 03:58:03;;;;;;;3.20;2.90;;;20.90;63.00;21.60;101182.00;;;;5008876;28;20183;-55
2023/09/27 04:00:29;;;;;;;3.40;3.10;;;20.90;63.10;21.60;101185.00;;;;5008996;28;20286;-55
2023/09/27 04:02:55;;;;;;;3.90;2.90;;;20.90;63.10;21.60;101190.00;;;;5008901;28;20195;-55
2023/09/27 04:05:26;;;;;;;2.97;2.73;;;20.90;63.20;21.60;101186.00;;;;5008924;28;20237;-55
2023/09/27 04:07:52;;;;;;;3.10;2.90;;;20.90;63.10;21.50;101194.00;;;;5006895;28;20218;-55
2023/09/27 04:10:19;;;;;;;3.00;2.73;;;20.80;63.00;21.50;101166.00;;;;5009001;28;20221;-54
2023/09/27 04:12:45;;;;;;;3.00;2.80;;;20.90;63.10;21.50;101186.00;;;;5007382;28;20706;-57
2023/09/27 04:15:11;;;;;;;2.90;2.70;;;20.80;63.10;21.50;101175.00;;;;4991094;28;20202;-56
2023/09/27 04:17:37;;;;;;;3.67;2.83;;;20.80;63.00;21.50;101108.00;;;;5007899;28;20189;-56
2023/09/27 04:20:18;;;;;;;5.57;3.20;;;20.70;63.10;21.50;101186.00;;;;5009424;28;20237;-55
2023/09/27 04:22:45;;;;;;;3.53;2.87;;;20.80;63.00;21.40;101184.00;;;;5012574;28;20210;-55
2023/09/27 04:25:15;;;;;;;5.37;3.00;;;20.70;63.10;21.40;101185.00;;;;5012611;28;20183;-55
2023/09/27 04:27:46;;;;;;;5.30;2.90;;;20.70;63.00;21.40;101183.00;;;;5009873;28;20187;-55
2023/09/27 04:30:14;;;;;;;5.87;3.20;;;20.70;63.10;21.40;101174.00;;;;5012710;28;20182;-55
2023/09/27 04:32:43;;;;;;;5.90;2.90;;;20.70;63.10;21.40;101194.00;;;;5008696;28;20200;-54
2023/09/27 04:35:09;;;;;;;3.40;2.90;;;20.70;63.10;21.40;101182.00;;;;4995518;28;20755;-55
2023/09/27 04:37:38;;;;;;;5.10;3.17;;;20.70;63.10;21.40;101182.00;;;;5011729;28;20190;-55
2023/09/27 04:40:11;;;;;;;3.00;2.80;;;20.70;63.00;21.40;101196.00;;;;5008498;28;20241;-55
2023/09/27 04:42:40;;;;;;;3.20;2.90;;;20.70;63.10;21.30;101192.00;;;;5010995;28;20231;-55
2023/09/27 04:45:08;;;;;;;3.80;2.80;;;20.70;63.10;21.30;101201.00;;;;5006879;28;20182;-56
2023/09/27 04:47:34;;;;;;;3.70;3.03;;;20.60;63.10;21.30;101205.00;;;;5011788;28;20172;-55
2023/09/27 04:49:59;;;;;;;3.10;2.90;;;20.60;63.20;21.30;101207.00;;;;5012457;28;20257;-55
2023/09/27 04:52:25;;;;;;;5.07;3.00;;;20.60;63.10;21.30;101202.00;;;;5012054;28;20360;-55
2023/09/27 04:54:58;;;;;;;2.93;2.70;;;20.60;63.10;21.20;101209.00;;;;5012007;28;20722;-55
2023/09/27 04:57:24;;;;;;;3.80;3.10;;;20.60;63.20;21.30;101193.00;;;;4994120;28;20194;-55
2023/09/27 04:59:53;;;;;;;3.27;2.97;;;20.60;63.20;21.20;101178.00;;;;5010978;28;20485;-55
2023/09/27 05:02:20;;;;;;;3.77;2.97;;;20.50;63.10;21.20;101178.00;;;;5011864;28;20202;-56
2023/09/27 05:04:47;;;;;;;3.33;2.83;;;20.50;63.10;21.20;101176.00;;;;4978185;28;20557;-55
2023/09/27 05:07:16;;;;;;;3.07;2.77;;;20.50;63.10;21.20;101172.00;;;;5011478;28;20842;-56
2023/09/27 05:09:42;;;;;;;3.53;3.23;;;20.40;63.30;21.10;101177.00;;;;5011185;28;20179;-54
2023/09/27 05:12:08;;;;;;;3.20;2.90;;;20.40;63.40;21.10;101117.00;;;;5011896;28;20199;-56
2023/09/27 05:14:33;;;;;;;3.40;3.10;;;20.30;63.40;21.00;101219.00;;;;5008722;28;20190;-55
2023/09/27 05:16:59;;;;;;;3.20;2.70;;;20.30;63.50;21.00;101211.00;;;;5010138;28;20249;-56
2023/09/27 05:19:25;;;;;;;4.47;3.10;;;20.30;63.40;21.00;101215.00;;;;5010010;28;20316;-55
2023/09/27 05:21:51;;;;;;;3.30;3.00;;;20.30;63.30;21.00;101215.00;;;;5011502;28;20215;-55
2023/09/27 05:24:16;;;;;;;3.30;3.00;;;20.30;63.20;21.00;101218.00;;;;5011837;28;20182;-55
2023/09/27 05:26:42;;;;;;;3.73;3.10;;;20.30;63.20;21.00;101215.00;;;;5011218;28;20196;-55
2023/09/27 05:29:13;;;;;;;4.20;2.93;;;20.30;63.20;21.00;101223.00;;;;5027108;28;20187;-54
2023/09/27 05:31:45;;;;;;;3.37;3.07;;;20.30;63.20;21.00;101227.00;;;;5017920;28;20260;-55
2023/09/27 05:34:11;;;;;;;3.00;2.80;;;20.30;63.20;21.00;101212.00;;;;5012324;28;20183;-54
2023/09/27 05:36:37;;;;;;;3.73;3.13;;;20.30;63.20;21.00;101213.00;;;;5011809;28;20381;-54
2023/09/27 05:39:05;;;;;;;5.27;3.27;;;20.30;63.20;21.00;101211.00;;;;5008846;28;20206;-55
2023/09/27 05:41:31;;;;;;;3.63;3.10;;;20.30;63.20;20.90;101204.00;;;;5012931;28;20203;-55
2023/09/27 05:43:57;;;;;;;3.13;2.93;;;20.30;63.30;20.90;101202.00;;;;5024424;28;20233;-55
2023/09/27 05:46:22;;;;;;;3.53;2.90;;;20.30;63.20;20.90;101190.00;;;;5013400;28;20182;-55
2023/09/27 05:48:49;;;;;;;3.43;3.00;;;20.20;63.20;20.90;101191.00;;;;5011337;28;20212;-55
2023/09/27 05:51:15;;;;;;;3.13;2.90;;;20.20;63.30;20.90;101200.00;;;;5010896;28;20756;-56
2023/09/27 05:53:41;;;;;;;3.17;2.87;;;20.30;63.30;20.90;101203.00;;;;5010440;28;20677;-56
2023/09/27 05:56:07;;;;;;;4.50;3.40;;;20.30;63.30;20.90;101216.00;;;;5010784;28;20181;-56
2023/09/27 05:58:35;;;;;;;4.00;2.73;;;20.20;63.30;20.90;101214.00;;;;5010232;28;20225;-56
2023/09/27 06:01:02;;;;;;;4.20;3.10;;;20.20;63.30;20.90;101229.00;;;;5010628;28;20190;-55
2023/09/27 06:03:30;;;;;;;4.10;2.90;;;20.20;63.30;20.90;101210.00;;;;5010374;28;20187;-55
2023/09/27 06:05:56;;;;;;;4.80;3.00;;;20.20;63.40;20.90;101205.00;;;;5009361;28;20679;-55
2023/09/27 06:08:22;;;;;;;3.67;3.20;;;20.20;63.40;20.90;101209.00;;;;4992256;28;20194;-55
2023/09/27 06:10:48;;;;;;;3.10;2.90;;;20.20;63.40;20.90;101201.00;;;;5010176;28;20183;-55
2023/09/27 06:13:15;;;;;;;3.97;3.00;;;20.20;63.40;20.90;101228.00;;;;5008610;28;20678;-55
2023/09/27 06:15:41;;;;;;;4.43;3.07;;;20.20;63.40;20.80;101235.00;;;;5010193;28;20188;-54
2023/09/27 06:18:07;;;;;;;4.00;3.07;;;20.20;63.40;20.80;101241.00;;;;5008179;28;20552;-55
2023/09/27 06:20:33;;;;;;;3.30;3.00;;;20.10;63.40;20.90;101251.00;;;;5009905;28;20222;-55
2023/09/27 06:23:03;;;;;;;3.80;2.90;;;20.20;63.50;20.80;101256.00;;;;5008773;28;20196;-55
2023/09/27 06:25:30;;;;;;;4.60;2.70;;;20.20;63.50;20.80;101247.00;;;;5010423;28;20790;-55
2023/09/27 06:27:57;;;;;;;3.73;3.37;;;20.20;64.30;20.80;101248.00;;;;5009579;28;20187;-55
2023/09/27 06:30:22;;;;;;;4.07;3.67;;;20.20;63.50;20.80;101259.00;;;;5009679;28;20184;-55
2023/09/27 06:32:49;;;;;;;3.97;3.67;;;20.20;63.70;20.80;101248.00;;;;5008512;28;20274;-55
2023/09/27 06:35:15;;;;;;;8.93;3.87;;;20.20;63.70;20.80;101251.00;;;;5008749;28;20190;-55
2023/09/27 06:37:48;;;;;;;4.60;3.60;;;20.10;63.70;20.80;101258.00;;;;5009201;28;20237;-55
2023/09/27 06:40:16;;;;;;;3.70;3.40;;;20.10;63.90;20.80;101260.00;;;;5009689;28;20257;-55
2023/09/27 06:42:46;;;;;;;3.80;3.50;;;20.10;64.00;20.80;101251.00;;;;5008399;28;20202;-56
2023/09/27 06:45:13;;;;;;;3.70;3.40;;;20.10;63.90;20.80;101232.00;;;;5005695;28;20174;-55
2023/09/27 06:47:40;;;;;;;4.90;3.90;;;20.10;64.10;20.80;101234.00;;;;5008848;28;20174;-56
2023/09/27 06:50:08;;;;;;;3.83;3.50;;;20.10;64.10;20.80;101240.00;;;;5003741;28;20199;-55
2023/09/27 06:52:34;;;;;;;4.03;3.70;;;20.10;64.30;20.70;101245.00;;;;5009047;28;20204;-55
2023/09/27 06:55:00;;;;;;;3.43;3.13;;;20.00;64.30;20.70;101250.00;;;;5010023;28;20683;-55
2023/09/27 06:57:26;;;;;;;3.80;3.50;;;20.00;64.50;20.60;101246.00;;;;5009987;28;20245;-54
2023/09/27 06:59:52;;;;;;;4.10;3.30;;;20.00;64.60;20.60;101239.00;;;;5009491;28;20213;-55
2023/09/27 07:02:17;;;;;;;3.67;3.37;;;20.00;64.40;20.60;101241.00;;;;5009558;28;20800;-55
2023/09/27 07:04:43;;;;;;;3.37;3.07;;;19.90;64.50;20.60;101234.00;;;;5009827;28;20198;-55
2023/09/27 07:07:10;;;;;;;3.43;3.13;;;20.00;64.50;20.60;101219.00;;;;5009801;28;20184;-56
2023/09/27 07:09:36;;;;;;;3.80;3.50;;;20.00;64.50;20.60;101223.00;;;;5009652;28;20230;-55
2023/09/27 07:12:02;;;;;;;3.50;3.17;;;19.90;64.60;20.60;101221.00;;;;5009457;28;20230;-56
2023/09/27 07:14:28;;;;;;;4.03;3.73;;;19.90;64.70;20.60;101216.00;;;;5009372;28;20191;-56
2023/09/27 07:16:53;;;;;;;4.20;3.50;;;19.90;65.00;20.60;101212.00;;;;5009222;28;20267;-55
2023/09/27 07:19:19;;;;;;;4.53;3.13;;;19.90;65.20;20.50;101213.00;;;;5008472;28;20709;-55
2023/09/27 07:21:45;;;;;;;3.70;3.40;;;19.80;65.50;20.50;101223.00;;;;5009342;28;20767;-55
2023/09/27 07:24:11;;;;;;;3.60;3.30;;;19.80;65.40;20.50;101229.00;;;;5009338;28;20525;-56
2023/09/27 07:26:37;;;;;;;3.80;3.40;;;19.80;65.30;20.50;101231.00;;;;5009415;28;20258;-55
2023/09/27 07:29:03;;;;;;;4.10;3.23;;;19.90;65.40;20.50;101231.00;;;;5013136;28;20197;-55
2023/09/27 07:31:29;;;;;;;4.00;3.20;;;19.90;65.40;20.60;101236.00;;;;5013962;28;20207;-55
2023/09/27 07:33:56;;;;;;;5.63;3.90;;;19.90;65.80;20.60;101229.00;;;;5010213;28;20186;-55
2023/09/27 07:36:24;;;;;;;12.43;4.00;;;19.90;66.00;20.60;101234.00;;;;5010080;28;20654;-55
2023/09/27 07:38:58;;;;;;;7.03;4.03;;;20.00;66.40;20.60;101231.00;;;;5011725;28;20202;-55
2023/09/27 07:41:24;;;;;;;8.37;4.00;;;20.00;66.70;20.60;101244.00;;;;4998803;28;20265;-56
2023/09/27 07:43:50;;;;;;;8.47;3.90;;;20.00;66.70;20.60;101247.00;;;;5019685;28;20210;-56
2023/09/27 07:46:17;;;;;;;6.77;4.10;;;19.90;66.20;20.60;101261.00;;;;5008035;28;20473;-55
2023/09/27 07:48:43;;;;;;;10.63;3.60;;;20.00;66.20;20.60;101241.00;;;;5009149;28;20201;-55
2023/09/27 07:51:13;;;;;;;5.60;3.80;;;20.00;66.30;20.60;101249.00;;;;5009028;28;20209;-55
2023/09/27 07:53:39;;;;;;;4.10;3.07;;;19.90;66.20;20.50;101245.00;;;;5007732;28;20190;-55
2023/09/27 07:56:09;;;;;;;9.73;3.67;;;19.90;66.20;20.60;101255.00;;;;4986413;28;20187;-55
2023/09/27 07:58:41;;;;;;;5.07;3.47;;;19.90;66.20;20.60;101230.00;;;;5005804;28;20190;-55
2023/09/27 08:01:07;;;;;;;4.37;3.20;;;19.90;66.20;20.60;101234.00;;;;5008739;28;20226;-56
2023/09/27 08:03:33;;;;;;;5.47;3.53;;;19.90;66.20;20.60;101236.00;;;;5009004;28;20183;-55
2023/09/27 08:05:58;;;;;;;3.80;3.37;;;19.90;66.10;20.60;101218.00;;;;5008932;28;20237;-56
2023/09/27 08:08:24;;;;;;;3.77;3.00;;;19.90;66.20;20.60;101223.00;;;;5008047;28;20648;-55
2023/09/27 08:10:51;;;;;;;3.80;3.30;;;19.90;66.20;20.50;101196.00;;;;5008562;28;20176;-55
2023/09/27 08:13:18;;;;;;;4.90;3.57;;;19.90;66.20;20.50;101210.00;;;;5007948;28;20185;-56
2023/09/27 08:15:47;;;;;;;3.90;3.47;;;19.90;66.60;20.60;101211.00;;;;5008651;28;20203;-54
2023/09/27 08:18:13;;;;;;;3.87;3.43;;;19.90;66.60;20.50;101206.00;;;;5008510;28;20267;-55
2023/09/27 08:20:39;;;;;;;3.50;3.20;;;19.90;66.60;20.60;101214.00;;;;5008263;28;20688;-56
2023/09/27 08:23:05;;;;;;;3.90;3.40;;;19.80;66.50;20.60;101203.00;;;;5008842;28;20306;-55
2023/09/27 08:25:30;;;;;;;5.03;3.40;;;19.80;66.70;20.60;101200.00;;;;5007169;28;20194;-55
2023/09/27 08:27:56;;;;;;;3.67;3.37;;;19.90;67.30;20.60;101197.00;;;;5008267;28;20550;-55
2023/09/27 08:30:22;;;;;;;4.07;3.67;;;19.90;67.60;20.50;101197.00;;;;5006251;28;20732;-55
2023/09/27 08:32:48;;;;;;;4.23;3.60;;;19.80;68.00;20.60;101195.00;;;;5008569;28;20609;-55
2023/09/27 08:35:14;;;;;;;4.03;3.63;;;19.90;68.10;20.60;101193.00;;;;5008628;28;20204;-56
2023/09/27 08:37:40;;;;;;;3.77;3.47;;;19.90;68.40;20.60;101180.00;;;;5008504;28;20282;-55
2023/09/27 08:40:12;;;;;;;3.70;3.40;;;19.90;68.70;20.30;101177.00;;;;5008049;28;20232;-56
2023/09/27 08:42:39;;;;;;;6.07;3.70;;;19.90;69.20;20.60;101176.00;;;;5008695;28;20265;-55
2023/09/27 08:45:15;;;;;;;5.10;3.67;;;19.90;69.60;20.60;101169.00;;;;5007606;28;20175;-55
2023/09/27 08:47:44;;;;;;;9.73;3.90;;;19.80;69.60;20.60;101180.00;;;;4990835;28;20539;-55
2023/09/27 08:50:14;;;;;;;7.10;3.83;;;19.80;69.60;20.60;101164.00;;;;5007326;28;20259;-55
2023/09/27 08:52:48;;;;;;;4.70;3.33;;;19.90;69.90;20.60;101163.00;;;;5008193;28;20563;-55
2023/09/27 08:55:14;;;;;;;3.90;3.20;;;19.90;70.30;20.60;101164.00;;;;5009009;28;20179;-55
2023/09/27 08:57:49;;;;;;;3.90;3.50;;;19.90;70.70;20.60;101172.00;;;;5008197;28;20234;-55
2023/09/27 09:00:21;;;;;;;4.13;3.50;;;19.80;70.60;20.60;101167.00;;;;4991372;28;20221;-55
2023/09/27 09:02:56;;;;;;;3.83;3.43;;;19.90;71.30;20.60;101151.00;;;;5005190;28;20196;-55
2023/09/27 09:05:22;;;;;;;3.93;3.50;;;19.90;70.10;20.60;101154.00;;;;5003986;28;20182;-55
2023/09/27 09:07:48;;;;;;;3.97;3.50;;;19.90;70.00;20.60;101166.00;;;;5010298;28;20186;-55
2023/09/27 09:10:15;;;;;;;4.50;3.47;;;19.90;70.00;20.60;101166.00;;;;5011485;28;20186;-55
2023/09/27 09:12:45;;;;;;;4.10;3.70;;;19.90;70.10;20.20;101158.00;;;;5011643;28;20303;-55
2023/09/27 09:15:15;;;;;;;3.87;3.53;;;19.90;70.20;20.60;101160.00;;;;5010657;28;20665;-55
2023/09/27 09:17:47;;;;;;;3.70;3.40;;;19.90;70.30;20.60;101143.00;;;;5010260;28;20561;-55
2023/09/27 09:20:32;;;;;;;5.37;3.77;;;19.90;70.20;20.70;101152.00;;;;5011576;28;20217;-54
2023/09/27 09:23:02;;;;;;;4.00;3.57;;;19.90;70.40;20.70;101141.00;;;;5011906;28;20215;-55
2023/09/27 09:25:28;;;;;;;3.30;3.10;;;19.90;70.40;20.70;101141.00;;;;5011731;28;20188;-55
2023/09/27 09:28:09;;;;;;;3.93;3.50;;;19.90;70.70;20.70;101127.00;;;;5024949;28;20206;-54
2023/09/27 09:30:39;;;;;;;3.50;3.20;;;19.90;70.70;20.70;101133.00;;;;5020162;28;20188;-55
2023/09/27 09:33:22;;;;;;;3.73;3.33;;;19.90;70.90;20.70;101128.00;;;;5011786;28;20210;-54
2023/09/27 09:35:47;;;;;;;4.63;3.47;;;20.00;71.10;20.70;101125.00;;;;5009169;28;20187;-54
2023/09/27 09:38:24;;;;;;;3.43;3.13;;;20.00;71.10;20.70;101121.00;;;;5010741;28;20248;-54
2023/09/27 09:40:54;;;;;;;3.57;3.27;;;20.00;70.90;20.70;101112.00;;;;5011830;28;20291;-56
2023/09/27 09:43:49;;;;;;;3.60;3.30;;;20.00;71.10;20.80;101118.00;;;;5028919;28;20537;-58
2023/09/27 09:46:23;;;;;;;3.80;3.37;;;20.00;71.00;20.80;101105.00;;;;5011054;28;20606;-54
2023/09/27 09:48:49;;;;;;;3.23;2.93;;;20.00;71.10;20.80;101111.00;;;;4992605;28;20175;-54
2023/09/27 09:51:15;;;;;;;3.83;3.53;;;20.00;71.50;20.80;101090.00;;;;4993486;28;20563;-54
2023/09/27 09:53:41;;;;;;;3.50;3.20;;;20.00;71.40;20.60;101105.00;;;;4993800;28;20186;-55
2023/09/27 09:56:08;;;;;;;3.80;3.50;;;20.10;71.70;20.80;101105.00;;;;5011233;28;20180;-55
2023/09/27 09:58:46;;;;;;;3.53;3.23;;;20.10;72.60;20.80;101110.00;;;;5009924;28;20184;-55
2023/09/27 10:01:21;;;;;;;4.60;3.30;;;20.10;72.20;20.90;101111.00;;;;5004712;28;20234;-54
2023/09/27 10:03:47;;;;;;;4.00;3.50;;;20.20;72.50;20.90;101114.00;;;;5008673;28;20278;-55
2023/09/27 10:06:19;;;;;;;3.53;3.20;;;20.10;72.10;20.90;101117.00;;;;5009162;28;20205;-54
2023/09/27 10:08:47;;;;;;;3.93;3.40;;;20.20;72.60;20.90;101112.00;;;;5009078;28;20419;-54
2023/09/27 10:11:13;;;;;;;3.73;3.40;;;20.10;72.20;20.90;101118.00;;;;5008696;28;20197;-55
2023/09/27 10:13:39;;;;;;;3.50;3.20;;;20.10;72.30;20.90;101112.00;;;;5010248;28;20553;-54
2023/09/27 10:16:05;;;;;;;3.30;3.00;;;20.20;73.50;21.00;101109.00;;;;5007927;28;20182;-55
2023/09/27 10:18:37;;;;;;;4.00;3.60;;;20.20;73.10;21.00;101106.00;;;;5009392;28;20222;-55
2023/09/27 10:21:03;;;;;;;3.40;3.10;;;20.30;73.50;21.00;101107.00;;;;5008131;28;20790;-55
2023/09/27 10:23:44;;;;;;;3.33;3.03;;;20.30;73.40;21.10;101116.00;;;;5009763;28;20184;-55
2023/09/27 10:26:28;;;;;;;3.60;3.30;;;20.30;73.10;21.10;101117.00;;;;5004520;28;20176;-55
2023/09/27 10:29:03;;;;;;;4.40;3.40;;;20.30;73.90;21.10;101106.00;;;;5009863;28;20654;-55
2023/09/27 10:31:39;;;;;;;3.67;3.20;;;20.40;73.80;21.10;101104.00;;;;5011937;28;20575;-55
2023/09/27 10:34:29;;;;;;;3.53;3.23;;;20.50;73.70;21.20;101094.00;;;;5009911;28;20262;-55
2023/09/27 10:36:55;;;;;;;3.40;3.10;;;20.50;73.50;21.20;101096.00;;;;5006142;28;20194;-54
2023/09/27 10:39:21;;;;;;;5.03;3.30;;;20.50;73.80;21.20;101086.00;;;;4993489;28;20706;-55
2023/09/27 10:41:48;;;;;;;3.73;3.40;;;20.50;74.30;21.20;101092.00;;;;5006553;28;20357;-55
2023/09/27 10:44:33;;;;;;;4.67;3.20;;;20.60;74.00;21.30;101099.00;;;;5010424;28;20222;-55
2023/09/27 10:47:03;;;;;;;3.77;3.47;;;20.60;73.70;21.30;101095.00;;;;5006163;28;20319;-55
2023/09/27 10:49:40;;;;;;;3.60;3.30;;;20.60;73.70;21.30;101100.00;;;;5007710;28;20660;-55